createdAt,value
2019-04-27T00:01:11.481Z,13.37
2019-04-27T00:03:54.030Z,13.30
2019-04-27T00:06:24.616Z,13.12
2019-04-27T00:09:01.406Z,13.04
2019-04-27T00:11:45.359Z,12.77
2019-04-27T00:14:14.966Z,12.64
2019-04-27T00:17:05.609Z,12.40
2019-04-27T00:20:06.036Z,12.30
2019-04-27T00:22:38.292Z,12.32
2019-04-27T00:25:07.725Z,12.31
2019-04-27T00:27:37.121Z,12.32
2019-04-27T00:30:06.787Z,12.22
2019-04-27T00:32:36.142Z,12.16
2019-04-27T00:35:05.651Z,12.10
2019-04-27T00:37:49.603Z,12.04
2019-04-27T00:40:23.621Z,12.01
2019-04-27T00:42:54.166Z,11.90
2019-04-27T00:45:23.731Z,11.94
2019-04-27T00:47:59.069Z,11.97
2019-04-27T00:50:24.366Z,11.86
2019-04-27T00:52:53.751Z,11.87
2019-04-27T00:55:23.457Z,11.97
2019-04-27T00:58:07.870Z,11.97
2019-04-27T01:00:59.149Z,12.05
2019-04-27T01:03:53.041Z,12.07
2019-04-27T01:06:23.889Z,12.03
2019-04-27T01:08:53.324Z,11.92
2019-04-27T01:11:24.878Z,11.97
2019-04-27T01:13:53.930Z,12.00
2019-04-27T01:16:24.144Z,12.02
2019-04-27T01:18:53.790Z,12.08
2019-04-27T01:21:23.154Z,11.99
2019-04-27T01:23:52.571Z,11.98
2019-04-27T01:26:53.082Z,11.97
2019-04-27T01:29:25.535Z,11.94
2019-04-27T01:31:54.963Z,11.89
2019-04-27T01:34:24.384Z,11.67
2019-04-27T01:36:53.756Z,11.67
2019-04-27T01:39:23.476Z,11.47
2019-04-27T01:41:52.854Z,11.33
2019-04-27T01:44:22.365Z,11.44
2019-04-27T01:46:51.721Z,11.52
2019-04-27T01:49:21.124Z,11.63
2019-04-27T01:51:50.605Z,11.70
2019-04-27T01:54:21.655Z,11.67
2019-04-27T01:56:51.016Z,11.70
2019-04-27T01:59:20.700Z,11.75
2019-04-27T02:02:12.823Z,11.80
2019-04-27T02:05:03.994Z,11.80
2019-04-27T02:07:33.676Z,11.62
2019-04-27T02:10:03.471Z,11.61
2019-04-27T02:12:32.841Z,11.61
2019-04-27T02:15:02.249Z,11.63
2019-04-27T02:17:31.610Z,11.68
2019-04-27T02:20:01.011Z,11.70
2019-04-27T02:22:31.144Z,11.65
2019-04-27T02:25:00.558Z,11.63
2019-04-27T02:27:31.647Z,11.66
2019-04-27T02:30:40.871Z,11.41
2019-04-27T02:33:30.166Z,11.39
2019-04-27T02:36:00.291Z,11.17
2019-04-27T02:38:30.611Z,10.93
2019-04-27T02:41:01.450Z,10.88
2019-04-27T02:43:54.157Z,10.97
2019-04-27T02:46:23.660Z,11.05
2019-04-27T02:49:00.003Z,10.94
2019-04-27T02:51:42.547Z,10.99
2019-04-27T02:54:12.599Z,11.13
2019-04-27T02:56:41.533Z,11.23
2019-04-27T02:59:11.928Z,11.28
2019-04-27T03:01:50.310Z,11.35
2019-04-27T03:04:20.441Z,11.40
2019-04-27T03:06:50.190Z,11.42
2019-04-27T03:09:20.477Z,11.36
2019-04-27T03:11:50.307Z,11.37
2019-04-27T03:14:53.960Z,11.34
2019-04-27T03:17:51.082Z,11.35
2019-04-27T03:20:29.835Z,11.31
2019-04-27T03:23:02.250Z,11.29
2019-04-27T03:25:56.272Z,11.22
2019-04-27T03:28:26.136Z,11.17
2019-04-27T03:30:55.532Z,11.16
2019-04-27T03:33:24.913Z,11.17
2019-04-27T03:35:54.348Z,11.20
2019-04-27T03:38:23.715Z,11.22
2019-04-27T03:40:53.391Z,11.24
2019-04-27T03:43:24.899Z,11.14
2019-04-27T03:45:54.517Z,11.10
2019-04-27T03:48:23.916Z,11.10
2019-04-27T03:51:11.121Z,11.13
2019-04-27T03:54:02.446Z,11.16
2019-04-27T03:56:39.528Z,11.13
2019-04-27T03:59:11.781Z,11.13
2019-04-27T04:01:41.209Z,11.09
2019-04-27T04:04:10.705Z,11.05
2019-04-27T04:06:40.227Z,11.02
2019-04-27T04:09:10.299Z,11.04
2019-04-27T04:11:50.227Z,10.99
2019-04-27T04:14:21.388Z,10.95
2019-04-27T04:17:01.680Z,10.95
2019-04-27T04:19:29.634Z,10.87
2019-04-27T04:21:59.862Z,10.90
2019-04-27T04:24:31.770Z,10.92
2019-04-27T04:27:00.913Z,11.03
2019-04-27T04:29:30.763Z,11.05
2019-04-27T04:32:00.697Z,11.11
2019-04-27T04:34:30.135Z,11.20
2019-04-27T04:37:00.413Z,11.31
2019-04-27T04:39:30.020Z,11.43
2019-04-27T04:42:11.608Z,11.55
2019-04-27T04:45:05.663Z,11.74
2019-04-27T04:47:49.720Z,11.76
2019-04-27T04:50:20.340Z,12.00
2019-04-27T04:52:50.220Z,12.25
2019-04-27T04:55:20.367Z,12.61
2019-04-27T04:57:50.063Z,12.76
2019-04-27T05:00:19.991Z,12.92
2019-04-27T05:02:50.104Z,12.94
2019-04-27T05:05:19.453Z,12.86
2019-04-27T05:07:48.867Z,12.72
2019-04-27T05:10:18.899Z,12.30
2019-04-27T05:12:50.422Z,12.18
2019-04-27T05:15:20.744Z,12.62
2019-04-27T05:17:51.192Z,13.75
2019-04-27T05:20:39.758Z,14.67
2019-04-27T05:23:09.814Z,15.44
2019-04-27T05:25:39.292Z,15.86
2019-04-27T05:28:09.790Z,15.99
2019-04-27T05:30:39.347Z,14.74
2019-04-27T05:33:09.122Z,15.13
2019-04-27T05:35:40.928Z,14.27
2019-04-27T05:38:12.959Z,13.34
2019-04-27T05:40:40.945Z,13.19
2019-04-27T05:43:11.877Z,14.25
2019-04-27T05:46:39.638Z,15.37
2019-04-27T05:49:13.463Z,15.73
2019-04-27T05:51:42.838Z,14.02
2019-04-27T05:54:12.265Z,13.06
2019-04-27T05:56:41.607Z,13.81
2019-04-27T05:59:11.001Z,13.67
2019-04-27T06:01:40.341Z,13.98
2019-04-27T06:04:09.766Z,13.52
2019-04-27T06:06:39.881Z,13.73
2019-04-27T06:09:09.638Z,13.28
2019-04-27T06:11:40.019Z,13.47
2019-04-27T06:14:09.859Z,12.73
2019-04-27T06:16:39.503Z,12.97
2019-04-27T06:19:09.582Z,13.18
2019-04-27T06:21:40.097Z,13.54
2019-04-27T06:24:09.796Z,13.62
2019-04-27T06:26:39.942Z,13.91
2019-04-27T06:29:09.666Z,14.09
2019-04-27T06:31:39.627Z,13.70
2019-04-27T06:34:09.817Z,13.31
2019-04-27T06:36:39.334Z,13.69
2019-04-27T06:39:09.955Z,13.43
2019-04-27T06:41:40.025Z,13.33
2019-04-27T06:44:11.402Z,13.06
2019-04-27T06:46:40.861Z,13.10
2019-04-27T06:49:11.014Z,13.01
2019-04-27T06:51:40.801Z,12.93
2019-04-27T06:54:10.181Z,12.84
2019-04-27T06:56:39.612Z,12.98
2019-04-27T06:59:09.065Z,13.28
2019-04-27T07:01:39.115Z,13.63
2019-04-27T07:04:10.855Z,13.81
2019-04-27T07:06:52.898Z,13.90
2019-04-27T07:09:10.857Z,14.03
2019-04-27T07:11:40.397Z,14.06
2019-04-27T07:14:11.615Z,14.32
2019-04-27T07:16:41.276Z,14.54
2019-04-27T07:19:10.651Z,14.68
2019-04-27T07:21:40.213Z,14.72
2019-04-27T07:24:09.617Z,14.80
2019-04-27T07:26:39.279Z,14.82
2019-04-27T07:29:09.643Z,14.71
2019-04-27T07:31:40.043Z,14.68
2019-04-27T07:34:09.690Z,14.48
2019-04-27T07:36:39.460Z,14.02
2019-04-27T07:39:11.488Z,14.16
2019-04-27T07:41:40.558Z,14.02
2019-04-27T07:44:31.337Z,14.18
2019-04-27T07:47:34.784Z,14.17
2019-04-27T07:50:04.275Z,14.63
2019-04-27T07:52:33.701Z,14.72
2019-04-27T07:55:03.437Z,14.55
2019-04-27T07:57:32.931Z,14.63
2019-04-27T08:00:02.371Z,14.62
2019-04-27T08:02:31.807Z,14.58
2019-04-27T08:05:01.172Z,14.55
2019-04-27T08:07:30.580Z,14.68
2019-04-27T08:10:01.643Z,14.87
2019-04-27T08:12:31.362Z,14.85
2019-04-27T08:15:00.953Z,14.84
2019-04-27T08:17:31.198Z,14.87
2019-04-27T08:20:00.576Z,14.80
2019-04-27T08:22:30.098Z,14.97
2019-04-27T08:24:59.666Z,15.08
2019-04-27T08:27:51.201Z,14.82
2019-04-27T08:30:34.108Z,14.78
2019-04-27T08:33:05.632Z,14.89
2019-04-27T08:35:35.221Z,14.73
2019-04-27T08:38:04.705Z,14.64
2019-04-27T08:40:34.085Z,14.06
2019-04-27T08:43:03.490Z,13.79
2019-04-27T08:45:32.890Z,13.34
2019-04-27T08:48:02.281Z,14.19
2019-04-27T08:50:31.674Z,14.72
2019-04-27T08:53:01.077Z,15.15
2019-04-27T08:55:30.486Z,15.62
2019-04-27T08:57:59.920Z,15.74
2019-04-27T09:00:29.279Z,15.63
2019-04-27T09:02:59.517Z,14.98
2019-04-27T09:05:29.185Z,15.26
2019-04-27T09:08:21.868Z,15.48
2019-04-27T09:11:12.908Z,15.88
2019-04-27T09:13:59.799Z,15.97
2019-04-27T09:16:40.856Z,15.23
2019-04-27T09:19:18.858Z,15.23
2019-04-27T09:22:15.252Z,15.08
2019-04-27T09:24:36.035Z,15.03
2019-04-27T09:27:05.786Z,15.68
2019-04-27T09:29:35.183Z,16.05
2019-04-27T09:32:04.597Z,16.42
2019-04-27T09:34:34.081Z,16.63
2019-04-27T09:37:03.440Z,16.98
2019-04-27T09:39:32.856Z,17.43
2019-04-27T09:42:02.243Z,18.28
2019-04-27T09:44:31.702Z,18.61
2019-04-27T09:47:01.086Z,17.72
2019-04-27T09:49:30.524Z,17.01
2019-04-27T09:51:59.925Z,16.54
2019-04-27T09:54:29.341Z,16.29
2019-04-27T09:56:58.712Z,16.21
2019-04-27T09:59:28.168Z,15.72
2019-04-27T10:01:57.770Z,15.49
2019-04-27T10:04:27.285Z,15.27
2019-04-27T10:06:57.082Z,15.34
2019-04-27T10:09:29.562Z,15.31
2019-04-27T10:11:58.178Z,14.98
2019-04-27T10:14:27.808Z,15.06
2019-04-27T10:16:57.611Z,15.15
2019-04-27T10:19:31.205Z,15.16
2019-04-27T10:21:58.531Z,15.16
2019-04-27T10:24:28.293Z,15.02
2019-04-27T10:26:57.888Z,15.07
2019-04-27T10:29:27.431Z,14.37
2019-04-27T10:31:56.872Z,14.54
2019-04-27T10:34:26.417Z,14.80
2019-04-27T10:36:56.078Z,15.09
2019-04-27T10:39:27.770Z,15.55
2019-04-27T10:41:56.799Z,16.03
2019-04-27T10:44:26.711Z,16.09
2019-04-27T10:46:56.937Z,16.35
2019-04-27T10:49:26.523Z,15.97
2019-04-27T10:51:56.257Z,15.34
2019-04-27T10:54:26.252Z,15.28
2019-04-27T10:56:55.989Z,15.21
2019-04-27T10:59:27.661Z,14.69
2019-04-27T11:01:57.170Z,14.44
2019-04-27T11:04:44.173Z,14.26
2019-04-27T11:07:15.949Z,14.65
2019-04-27T11:09:45.584Z,14.83
2019-04-27T11:12:15.882Z,14.71
2019-04-27T11:14:45.526Z,14.98
2019-04-27T11:17:16.430Z,15.41
2019-04-27T11:19:46.136Z,15.52
2019-04-27T11:22:16.426Z,15.22
2019-04-27T11:24:47.845Z,15.18
2019-04-27T11:27:17.405Z,15.11
2019-04-27T11:29:47.044Z,15.21
2019-04-27T11:32:17.315Z,15.54
2019-04-27T11:35:09.682Z,16.51
2019-04-27T11:37:39.281Z,15.97
2019-04-27T11:40:09.055Z,15.85
2019-04-27T11:42:38.737Z,15.94
2019-04-27T11:45:08.372Z,15.55
2019-04-27T11:47:38.008Z,15.99
2019-04-27T11:50:08.452Z,16.82
2019-04-27T11:52:38.049Z,16.47
2019-04-27T11:55:07.686Z,16.68
2019-04-27T11:57:37.722Z,16.14
2019-04-27T12:00:08.839Z,16.27
2019-04-27T12:02:38.736Z,16.78
2019-04-27T12:05:08.518Z,17.29
2019-04-27T12:07:38.143Z,18.04
2019-04-27T12:10:07.810Z,17.41
2019-04-27T12:12:37.468Z,17.17
2019-04-27T12:15:07.957Z,16.42
2019-04-27T12:17:37.606Z,16.10
2019-04-27T12:20:07.480Z,15.46
2019-04-27T12:22:37.099Z,15.06
2019-04-27T12:25:06.928Z,15.11
2019-04-27T12:27:55.523Z,14.73
2019-04-27T12:30:44.075Z,13.95
2019-04-27T12:33:13.729Z,12.86
2019-04-27T12:35:43.394Z,12.67
2019-04-27T12:38:13.187Z,12.94
2019-04-27T12:40:42.834Z,13.10
2019-04-27T12:43:12.492Z,13.35
2019-04-27T12:45:43.603Z,13.62
2019-04-27T12:48:13.479Z,13.67
2019-04-27T12:50:43.021Z,13.62
2019-04-27T12:53:18.304Z,13.84
2019-04-27T12:56:09.856Z,14.46
2019-04-27T12:58:53.473Z,14.65
2019-04-27T13:01:23.640Z,14.75
2019-04-27T13:03:53.270Z,14.62
2019-04-27T13:06:22.897Z,14.46
2019-04-27T13:08:52.685Z,14.77
2019-04-27T13:11:22.993Z,15.18
2019-04-27T13:13:52.740Z,15.42
2019-04-27T13:16:22.273Z,15.30
2019-04-27T13:18:51.979Z,15.79
2019-04-27T13:21:21.735Z,17.07
2019-04-27T13:24:01.262Z,17.32
2019-04-27T13:26:22.788Z,17.29
2019-04-27T13:28:52.457Z,17.42
2019-04-27T13:31:22.084Z,17.16
2019-04-27T13:33:51.771Z,17.43
2019-04-27T13:36:21.386Z,17.69
2019-04-27T13:38:51.073Z,17.78
2019-04-27T13:41:30.322Z,18.12
2019-04-27T13:43:52.236Z,17.53
2019-04-27T13:46:43.584Z,17.05
2019-04-27T13:49:38.074Z,16.57
2019-04-27T13:52:12.903Z,16.55
2019-04-27T13:54:42.599Z,16.23
2019-04-27T13:57:12.355Z,16.86
2019-04-27T13:59:42.000Z,17.16
2019-04-27T14:02:13.236Z,17.39
2019-04-27T14:04:43.151Z,17.63
2019-04-27T14:07:12.756Z,17.97
2019-04-27T14:09:42.400Z,18.14
2019-04-27T14:12:21.860Z,18.59
2019-04-27T14:14:51.513Z,19.00
2019-04-27T14:17:21.201Z,18.95
2019-04-27T14:19:50.829Z,18.75
2019-04-27T14:22:20.388Z,18.57
2019-04-27T14:24:50.185Z,18.80
2019-04-27T14:27:21.400Z,18.82
2019-04-27T14:29:51.005Z,18.23
2019-04-27T14:32:20.680Z,15.90
2019-04-27T14:34:50.507Z,14.90
2019-04-27T14:37:20.210Z,14.59
2019-04-27T14:39:49.836Z,14.80
2019-04-27T14:42:19.509Z,15.06
2019-04-27T14:44:49.308Z,15.48
2019-04-27T14:47:19.007Z,15.48
2019-04-27T14:49:49.211Z,16.11
2019-04-27T14:52:18.988Z,16.54
2019-04-27T14:54:50.822Z,16.86
2019-04-27T14:57:20.445Z,16.63
2019-04-27T14:59:50.518Z,16.85
2019-04-27T15:02:20.160Z,16.96
2019-04-27T15:04:50.034Z,16.93
2019-04-27T15:07:19.610Z,17.17
2019-04-27T15:09:49.614Z,17.20
2019-04-27T15:12:24.516Z,17.32
2019-04-27T15:14:53.381Z,17.24
2019-04-27T15:17:26.618Z,17.47
2019-04-27T15:20:00.300Z,18.09
2019-04-27T15:22:31.911Z,18.11
2019-04-27T15:25:13.555Z,18.06
2019-04-27T15:27:42.189Z,18.00
2019-04-27T15:30:17.775Z,17.98
2019-04-27T15:33:16.533Z,17.64
2019-04-27T15:35:53.968Z,17.06
2019-04-27T15:38:26.354Z,16.60
2019-04-27T15:41:14.995Z,16.14
2019-04-27T15:43:45.046Z,15.04
2019-04-27T15:46:14.599Z,14.33
2019-04-27T15:48:44.268Z,14.39
2019-04-27T15:51:17.482Z,13.85
2019-04-27T15:53:45.961Z,13.78
2019-04-27T15:56:18.100Z,14.11
2019-04-27T15:58:48.397Z,14.12
2019-04-27T16:01:18.185Z,13.83
2019-04-27T16:03:48.259Z,13.69
2019-04-27T16:06:38.369Z,13.46
2019-04-27T16:09:11.100Z,12.79
2019-04-27T16:11:40.633Z,12.82
2019-04-27T16:14:09.996Z,12.73
2019-04-27T16:16:40.385Z,12.62
2019-04-27T16:19:11.555Z,12.72
2019-04-27T16:21:46.929Z,12.95
2019-04-27T16:24:12.610Z,13.15
2019-04-27T16:26:46.511Z,13.36
2019-04-27T16:29:14.466Z,13.55
2019-04-27T16:31:43.893Z,14.02
2019-04-27T16:34:13.264Z,14.36
2019-04-27T16:36:43.672Z,14.67
2019-04-27T16:39:13.740Z,14.71
2019-04-27T16:41:43.134Z,14.73
2019-04-27T16:44:12.505Z,14.55
2019-04-27T16:46:43.137Z,14.67
2019-04-27T16:49:15.100Z,14.51
2019-04-27T16:51:43.890Z,14.54
2019-04-27T16:54:18.369Z,14.81
2019-04-27T16:56:45.729Z,14.85
2019-04-27T16:59:38.685Z,14.71
2019-04-27T17:01:47.510Z,14.73
2019-04-27T17:04:17.090Z,14.78
2019-04-27T17:06:49.237Z,14.64
2019-04-27T17:09:18.953Z,14.72
2019-04-27T17:11:50.280Z,14.23
2019-04-27T17:14:28.944Z,13.88
2019-04-27T17:17:10.395Z,13.37
2019-04-27T17:19:41.996Z,12.84
2019-04-27T17:22:14.724Z,12.59
2019-04-27T17:24:46.391Z,12.41
2019-04-27T17:27:16.246Z,12.38
2019-04-27T17:29:50.042Z,12.14
2019-04-27T17:32:33.773Z,12.02
2019-04-27T17:35:05.622Z,11.98
2019-04-27T17:37:35.338Z,11.82
2019-04-27T17:40:04.825Z,11.87
2019-04-27T17:42:34.209Z,11.83
2019-04-27T17:45:03.576Z,11.93
2019-04-27T17:47:32.999Z,12.03
2019-04-27T17:50:02.363Z,12.25
2019-04-27T17:52:31.766Z,12.67
2019-04-27T17:55:01.287Z,12.87
2019-04-27T17:57:30.744Z,12.88
2019-04-27T18:00:03.251Z,12.80
2019-04-27T18:02:33.812Z,12.54
2019-04-27T18:05:02.337Z,12.60
2019-04-27T18:07:34.856Z,12.66
2019-04-27T18:10:02.852Z,12.26
2019-04-27T18:12:32.547Z,12.31
2019-04-27T18:15:01.968Z,12.28
2019-04-27T18:17:32.345Z,12.41
2019-04-27T18:20:04.578Z,12.38
2019-04-27T18:22:39.666Z,12.47
2019-04-27T18:25:09.980Z,12.39
2019-04-27T18:28:01.502Z,12.38
2019-04-27T18:30:38.667Z,12.20
2019-04-27T18:33:05.099Z,12.21
2019-04-27T18:35:34.463Z,12.33
2019-04-27T18:38:03.906Z,12.28
2019-04-27T18:40:33.664Z,12.24
2019-04-27T18:43:06.344Z,12.19
2019-04-27T18:45:39.809Z,12.43
2019-04-27T18:48:13.492Z,12.02
2019-04-27T18:51:00.605Z,12.05
2019-04-27T18:53:30.661Z,12.13
2019-04-27T18:56:05.009Z,12.14
2019-04-27T18:58:31.155Z,12.05
2019-04-27T19:01:00.539Z,11.89
2019-04-27T19:03:31.691Z,11.94
2019-04-27T19:06:01.056Z,11.88
2019-04-27T19:08:30.444Z,11.91
2019-04-27T19:11:00.390Z,11.81
2019-04-27T19:13:29.951Z,12.10
2019-04-27T19:15:59.939Z,12.32
2019-04-27T19:18:29.398Z,12.07
2019-04-27T19:20:58.798Z,11.82
2019-04-27T19:23:29.815Z,11.71
2019-04-27T19:26:30.447Z,11.59
2019-04-27T19:29:29.233Z,11.83
2019-04-27T19:32:00.499Z,11.63
2019-04-27T19:34:31.171Z,11.99
2019-04-27T19:37:00.508Z,11.87
2019-04-27T19:39:30.015Z,12.09
2019-04-27T19:42:03.411Z,12.22
2019-04-27T19:44:30.591Z,12.42
2019-04-27T19:47:00.384Z,12.45
2019-04-27T19:49:31.787Z,12.48
2019-04-27T19:52:00.945Z,12.54
2019-04-27T19:54:30.428Z,12.51
2019-04-27T19:56:59.882Z,12.35
2019-04-27T19:59:33.916Z,12.36
2019-04-27T20:02:08.723Z,12.50
2019-04-27T20:04:39.680Z,12.50
2019-04-27T20:07:10.579Z,12.68
2019-04-27T20:09:58.639Z,12.76
2019-04-27T20:12:28.049Z,12.60
2019-04-27T20:14:57.471Z,12.42
2019-04-27T20:17:28.138Z,12.05
2019-04-27T20:19:57.529Z,11.92
2019-04-27T20:22:26.930Z,11.86
2019-04-27T20:24:56.385Z,11.94
2019-04-27T20:27:25.811Z,12.01
2019-04-27T20:29:55.191Z,11.89
2019-04-27T20:32:24.623Z,11.89
2019-04-27T20:34:54.419Z,11.88
2019-04-27T20:37:23.825Z,11.91
2019-04-27T20:39:53.171Z,11.99
2019-04-27T20:42:22.730Z,12.12
2019-04-27T20:44:52.070Z,12.17
2019-04-27T20:47:21.483Z,12.21
2019-04-27T20:49:50.833Z,11.91
2019-04-27T20:52:26.068Z,11.59
2019-04-27T20:54:55.419Z,11.66
2019-04-27T20:57:24.824Z,11.48
2019-04-27T20:59:54.167Z,11.73
2019-04-27T21:02:34.986Z,11.83
2019-04-27T21:05:13.228Z,11.87
2019-04-27T21:07:47.578Z,11.89
2019-04-27T21:10:17.002Z,11.82
2019-04-27T21:12:46.596Z,11.62
2019-04-27T21:15:15.986Z,11.45
2019-04-27T21:17:45.418Z,11.37
2019-04-27T21:20:14.798Z,11.27
2019-04-27T21:22:44.183Z,11.36
2019-04-27T21:25:13.579Z,11.48
2019-04-27T21:27:42.954Z,11.40
2019-04-27T21:30:12.298Z,11.32
2019-04-27T21:32:41.705Z,11.31
2019-04-27T21:35:11.436Z,11.57
2019-04-27T21:37:41.016Z,11.49
2019-04-27T21:40:28.574Z,11.57
2019-04-27T21:42:57.991Z,11.56
2019-04-27T21:45:31.796Z,11.58
2019-04-27T21:48:01.619Z,11.59
2019-04-27T21:50:31.391Z,11.47
2019-04-27T21:53:22.987Z,11.57
2019-04-27T21:56:11.316Z,11.54
2019-04-27T21:58:42.039Z,11.39
2019-04-27T22:01:24.904Z,11.33
2019-04-27T22:03:54.303Z,11.44
2019-04-27T22:06:25.225Z,11.70
2019-04-27T22:08:54.769Z,11.87
2019-04-27T22:11:24.398Z,12.00
2019-04-27T22:13:54.056Z,12.06
2019-04-27T22:16:23.737Z,11.85
2019-04-27T22:18:53.579Z,11.59
2019-04-27T22:21:23.244Z,11.76
2019-04-27T22:23:57.943Z,11.70
2019-04-27T22:26:27.600Z,11.61
2019-04-27T22:28:57.236Z,11.67
2019-04-27T22:31:26.881Z,11.68
2019-04-27T22:33:56.554Z,11.77
2019-04-27T22:36:26.227Z,11.75
2019-04-27T22:38:57.713Z,11.34
2019-04-27T22:41:49.163Z,11.38
2019-04-27T22:44:38.703Z,11.54
2019-04-27T22:47:08.281Z,11.68
2019-04-27T22:49:38.027Z,11.50
2019-04-27T22:52:07.698Z,11.42
2019-04-27T22:54:37.347Z,11.51
2019-04-27T22:57:25.410Z,11.59
2019-04-27T23:00:05.479Z,11.81
2019-04-27T23:02:40.766Z,11.82
2019-04-27T23:05:10.986Z,11.66
2019-04-27T23:07:41.501Z,11.73
2019-04-27T23:10:11.356Z,11.64
2019-04-27T23:12:41.922Z,11.50
2019-04-27T23:15:15.536Z,11.51
2019-04-27T23:18:03.135Z,11.47
2019-04-27T23:20:32.824Z,11.13
2019-04-27T23:23:02.856Z,11.08
2019-04-27T23:25:32.770Z,10.97
2019-04-27T23:28:02.623Z,10.98
2019-04-27T23:30:42.642Z,10.86
2019-04-27T23:33:12.385Z,10.74
2019-04-27T23:35:42.134Z,10.91
2019-04-27T23:38:17.240Z,10.63
2019-04-27T23:40:43.217Z,10.53
2019-04-27T23:43:12.854Z,10.42
2019-04-27T23:45:42.514Z,10.61
2019-04-27T23:48:12.434Z,10.34
2019-04-27T23:50:44.021Z,10.32
2019-04-27T23:53:17.518Z,10.20
2019-04-27T23:55:47.259Z,10.35
2019-04-27T23:58:16.861Z,10.50
